Reklama

Seznam meteostanic a jejich METAR

Vyhledat místa podle abecedy:
A B C D E F G H I J K L M N O P Q R S T U V W X Y Z

Filtrovat:

ID stanice:
a/nebo
Název místa (fulltext):
 
Místo (ID)Naposledy načteno 
Verona (LIPX) 04.06.2020 07:50 UTC Zobrazit METAR
LIPX 040750Z 05005KT 030V090 6000 RA SCT045 OVC060 16/15 Q1003
Vienna (LOWW) 04.06.2020 07:50 UTC Zobrazit METAR
LOWW 040750Z 09007KT 060V120 CAVOK 17/12 Q0999 NOSIG
Vientiane (VLVT) 04.06.2020 08:00 UTC Zobrazit METAR
VLVT 040800Z 12008KT 8000 SCT016 BKN050 33/26 Q1005 NOSIG
Vieuxfort (TLPL) 04.06.2020 08:00 UTC Zobrazit METAR
TLPL 040800Z 09022KT 9999 FEW024 28/23 Q1014 NOSIG
Vilnius (EYVI) 04.06.2020 07:50 UTC Zobrazit METAR
EYVI 040750Z 09003KT 040V160 9999 BKN013 13/09 Q1002 NOSIG
Vitebsk (UMII) Zatím nenačteno  
Volgograd (URWW) Zatím nenačteno  
Voronezh (UUOO) Zatím nenačteno  
Wake Island (PWAK) 31.05.2020 04:58 UTC Zobrazit METAR
PWAK 310458Z AUTO 08012KT 9999 SCT021 SCT031 BKN055 29/23 A3001 RMK AO2 SLP169 T02860232 $
Warsaw (EPWA) 04.06.2020 07:00 UTC Zobrazit METAR
EPWA 040700Z VRB02KT 9999 FEW033 16/06 Q1001 NOSIG
Washington (KIAD) 04.06.2020 07:52 UTC Zobrazit METAR
KIAD 040752Z 00000KT 10SM BKN180 BKN250 23/16 A2982 RMK AO2 SLP093 T02280156 $
Wellington (NZWN) 04.06.2020 08:00 UTC Zobrazit METAR
NZWN 040800Z AUTO 17017KT 7000 RA SCT010/// BKN014/// OVC041/// 12/11 Q1005 TEMPO 4000 RA BKN008
Windhoek (FYWH) 04.06.2020 04:00 UTC Zobrazit METAR
FYWH 040400Z 26005KT CAVOK 03/M02 Q1024 NOSIG
Wroclaw (EPWR) 04.06.2020 08:00 UTC Zobrazit METAR
EPWR 040800Z 12013KT CAVOK 19/07 Q0999
Yamoussoukro (DIYO) 04.06.2020 08:00 UTC Zobrazit METAR
DIYO 040800Z 24006KT 8000 BKN010 OVC100 25/24 Q1014 NOSIG
Yangon (VYYY) 04.06.2020 03:00 UTC Zobrazit METAR
VYYY 040300Z 16005KT 8000 SCT025 SCT110 31/27 Q1008
Yaounde (FKYS) 04.06.2020 08:00 UTC Zobrazit METAR
FKYS 040800Z 17003KT 140V210 6000 SCT010 22/21 Q1019 NOSIG
Yerevan (UGEE) Zatím nenačteno  
Zadar (LDZD) 04.06.2020 08:00 UTC Zobrazit METAR
LDZD 040800Z 16012KT 120V190 9999 SCT040 22/11 Q1007 NOSIG
Zagreb (LDZA) 04.06.2020 08:00 UTC Zobrazit METAR
LDZA 040800Z 25009KT 210V280 9999 FEW025 20/14 Q1003 NOSIG
Zaragoza (LEZG) 04.06.2020 08:00 UTC Zobrazit METAR
LEZG 040800Z 29009KT 260V320 9999 FEW065 SCT080 16/14 Q1005
Zhezkazgan (UAKD) Zatím nenačteno  
Zurich (LSZH) 04.06.2020 07:50 UTC Zobrazit METAR
LSZH 040750Z 20005KT 9999 -RA FEW014 BKN020 BKN065 15/13 Q0999 TEMPO RA
Předchozí 1 ... 7 8 9
Reklama

Lunární kalendář

  • zítraFáze měsíce uplnek
  • 13.06.Fáze měsíce posl_ctvrt
  • 21.06.Fáze měsíce nov
  • 28.06.Fáze měsíce prv_ctvrt



Reklama
Meteodomečky

Počasí na Váš email

Emaily jsou bez reklamy a bez spamu



Odhlásit newsletter

Reklama


Další české internetové stránky (nejen) o počasí najdete v katalogu TOPlist - weby o počasí nebo vyhledejte na internetu, co jste tu na 🌞 Slunečnu ⛅ zatím nenašli:

Reklama